Share

Cartagena, Colombia

Rafael Nunez (SKCG) Elev 39 ft | 10.45 °N, 75.52 °W | Change Station

Current weather conditions updated 26 minutes ago

Partly Cloudy
Partly Cloudy
79 °F
Feels Like 79 °F
N
2
Wind Variable Wind from Variable
Sunrise 5:48 AM
Sunset 6:13 PM
Moon Waning Gibbous

Today is forecast to be nearly the same temperature as yesterday. Thunderstorms.

Pressure 29.81 in
Visibility 6.2 miles
Clouds Few 1500 ft
Dew Point 75 °F
Humidity 89%
Rainfall 0.00 in
Snow Depth Not available.
UV 0 out of 16
Pollen Not available.
Air Quality Not available.
Flu Activity Not available.
METAR SKCG 200700Z VRB02KT 9999 FEW015 26/24 A2981

More Conditions Fewer Conditions

Pressure 29.81 in
Visibility 6.2 miles
Clouds Few 1500 ft
Dew Point 75 °F
Humidity 89%
Rainfall 0.00 in
Snow Depth Not available.
UV 0 out of 16
Pollen Not available.
Air Quality Not available.
Flu Activity Not available.
METAR SKCG 200700Z VRB02KT 9999 FEW015 26/24 A2981

More Conditions Fewer Conditions

10-Day Weather Forecast

Almanac

Astronomy

Apr. 20, 2014 Rise Set
Actual Time 5:48 AM COT 6:13 PM COT
Civil Twilight 5:27 AM COT 6:34 PM COT
Nautical Twilight 5:02 AM COT 6:59 PM COT
Astronomical Twilight 4:37 AM COT 7:25 PM COT
Moon 11:25 PM COT 10:27 AM COT
Length of Visible Light 13h 07m
Length of Day
12h 24m
Tomorrow will be 0m 32s longer.
Waning Gibbous, 72% of the Moon is Illuminated
Today
Waning Gibbous
Apr 22
Last Quarter
Apr 29
New
May 6
First Quarter
May 14
Full

Yesterday's Extremes

Country Highs Country Lows

Community

  • Sunny day at the coast-Cape Arago Lighthouse
    Sunny day at the coast-Cape Arago Lighthouse
  • Cherry Blossoms
    Cherry Blossoms
  • White-Crowned Sparrow
    White-Crowned Sparrow
  • New Day
    New Day
  • Happy Easter!
    Happy Easter!

WunderPhotos

Upload Photos

1,703,084 photos uploaded!

WunderBlogs® & News

Nearby

Snow Depth

Not available.

Coastal Water Temperatures

Place Temperature
No Stations Reporting

Earthquake Activity

City Distance Mag. Time & Date
No recent earthquake activity has been reported nearby.
Minimum magnitude displayed is 2.5.

Nearby Weather Stations

There are no personal weather stations in this area.

What do you think?

We're not finished. Please let us know what you like, what you don't like, and what you are still missing.